Time;durP1;ratioP1;P1;durP2;ratioP2;P2;SDS_P1;SDS_P2;PMS_P1;PMS_P2;Temp;Humidity;BMP_temperature;BMP_pressure;BME280_temperature;BME280_humidity;BME280_pressure;Samples;Min_cycle;Max_cycle;Signal;HPM_P1;HPM_P2
2021/10/15 00:01:32;;;;;;;2.05;1.70;;;;;;;25.40;21.27;94559.34;5052626;28;20060;-64
2021/10/15 00:03:59;;;;;;;1.90;1.60;;;;;;;25.36;21.13;94544.41;5052779;28;20040;-65
2021/10/15 00:06:26;;;;;;;2.00;1.80;;;;;;;25.36;21.29;94544.41;5052299;28;20561;-62
2021/10/15 00:08:53;;;;;;;2.35;1.88;;;;;;;25.55;21.10;94551.38;5052802;28;20049;-59
2021/10/15 00:11:20;;;;;;;2.47;2.00;;;;;;;25.44;21.35;94546.72;5052851;28;20063;-62
2021/10/15 00:13:48;;;;;;;3.10;2.38;;;;;;;25.34;21.46;94538.66;5042212;28;20073;-67
2021/10/15 00:16:15;;;;;;;3.80;2.50;;;;;;;25.23;21.60;94543.19;5050108;28;20053;-65
2021/10/15 00:18:42;;;;;;;2.65;2.38;;;;;;;25.20;21.73;94539.34;5052694;28;20502;-65
2021/10/15 00:21:09;;;;;;;3.35;2.33;;;;;;;25.27;21.76;94544.00;5052506;28;20044;-59
2021/10/15 00:23:36;;;;;;;2.55;2.35;;;;;;;25.24;21.67;94542.03;5052621;28;20052;-61
2021/10/15 00:26:03;;;;;;;2.90;2.60;;;;;;;25.07;21.79;94538.16;5051993;28;20036;-63
2021/10/15 00:28:30;;;;;;;2.40;2.20;;;;;;;25.24;21.59;94539.38;5052268;28;20045;-58
2021/10/15 00:30:58;;;;;;;2.47;2.28;;;;;;;25.14;21.89;94536.28;5052922;28;20045;-68
2021/10/15 00:33:25;;;;;;;2.40;2.15;;;;;;;25.24;21.66;94544.72;5051120;28;20049;-64
2021/10/15 00:35:58;;;;;;;2.72;1.95;;;;;;;25.26;21.45;94543.22;5051180;28;20060;-63
2021/10/15 00:38:25;;;;;;;3.08;1.80;;;;;;;25.18;21.84;94537.06;5052443;28;20399;-60
2021/10/15 00:40:52;;;;;;;2.13;1.58;;;;;;;25.16;21.85;94539.34;5051210;28;20782;-63
2021/10/15 00:43:19;;;;;;;1.80;1.50;;;;;;;25.11;21.83;94538.94;5044859;28;20356;-60
2021/10/15 00:45:46;;;;;;;2.17;1.67;;;;;;;25.10;21.77;94532.06;5044633;28;20363;-66
2021/10/15 00:48:13;;;;;;;1.80;1.52;;;;;;;24.78;22.14;94529.94;5051600;28;20057;-60
2021/10/15 00:50:43;;;;;;;2.40;1.65;;;;;;;24.86;21.87;94526.16;5052108;28;20049;-66
2021/10/15 00:53:11;;;;;;;2.35;1.73;;;;;;;24.79;21.89;94526.13;5033991;28;20045;-65
2021/10/15 00:55:38;;;;;;;2.72;1.90;;;;;;;24.96;21.94;94513.97;5052223;28;20049;-64
2021/10/15 00:58:05;;;;;;;2.08;1.67;;;;;;;24.92;21.74;94518.53;5052642;28;20055;-67
2021/10/15 01:00:32;;;;;;;2.75;1.92;;;;;;;25.09;21.59;94528.63;5050915;28;20060;-63
2021/10/15 01:02:59;;;;;;;2.63;1.85;;;;;;;25.06;21.58;94510.63;5051905;28;20076;-66
2021/10/15 01:05:27;;;;;;;3.13;2.10;;;;;;;24.85;21.88;94518.50;5052304;28;20079;-63
2021/10/15 01:07:56;;;;;;;2.08;1.85;;;;;;;25.04;21.64;94504.13;5034539;28;20052;-63
2021/10/15 01:10:24;;;;;;;2.70;1.80;;;;;;;25.14;21.58;94504.19;5052079;28;20045;-59
2021/10/15 01:12:54;;;;;;;2.40;1.70;;;;;;;24.90;21.97;94507.47;5048868;28;20053;-66
2021/10/15 01:15:22;;;;;;;2.08;1.80;;;;;;;25.00;21.69;94509.47;5040094;28;20063;-60
2021/10/15 01:17:49;;;;;;;2.30;1.70;;;;;;;25.01;21.70;94502.97;5052015;28;20048;-69
2021/10/15 01:20:17;;;;;;;2.00;1.80;;;;;;;25.17;21.49;94492.72;5051735;28;20056;-64
2021/10/15 01:22:44;;;;;;;2.25;1.67;;;;;;;25.09;21.79;94485.06;5051082;28;20044;-65
2021/10/15 01:25:11;;;;;;;2.30;1.70;;;;;;;25.20;21.94;94496.56;5050763;28;20048;-64
2021/10/15 01:27:38;;;;;;;2.70;1.70;;;;;;;25.14;21.85;94492.72;5051849;28;20686;-66
2021/10/15 01:30:06;;;;;;;2.40;1.73;;;;;;;25.14;21.90;94498.81;5051465;28;20052;-63
2021/10/15 01:32:34;;;;;;;3.90;1.70;;;;;;;25.13;21.79;94481.25;5057750;28;20059;-65
2021/10/15 01:35:01;;;;;;;2.17;1.60;;;;;;;25.24;21.62;94480.50;5051401;28;20645;-66
2021/10/15 01:37:28;;;;;;;2.45;1.45;;;;;;;25.24;21.74;94491.97;5051661;28;20056;-64
2021/10/15 01:39:56;;;;;;;1.83;1.42;;;;;;;25.10;21.87;94492.69;5051359;28;20442;-66
2021/10/15 01:45:09;;;;;;;2.95;1.98;;;;;;;25.25;21.51;94482.84;5036477;28;20056;-62
2021/10/15 01:47:36;;;;;;;2.60;1.70;;;;;;;25.02;21.71;94479.69;5051716;28;20056;-61
2021/10/15 01:50:03;;;;;;;1.95;1.60;;;;;;;25.22;21.75;94478.22;5050982;28;20045;-60
2021/10/15 01:52:30;;;;;;;2.20;1.67;;;;;;;25.23;21.49;94487.78;5051094;28;20052;-64
2021/10/15 01:54:57;;;;;;;2.95;1.60;;;;;;;25.22;21.74;94470.19;5033879;28;20045;-66
2021/10/15 01:57:24;;;;;;;2.50;1.90;;;;;;;25.11;21.94;94467.47;5051519;28;20049;-64
2021/10/15 01:59:51;;;;;;;2.50;2.00;;;;;;;25.20;21.49;94475.91;5051806;28;20048;-62
2021/10/15 02:02:19;;;;;;;2.40;2.00;;;;;;;25.09;21.62;94469.78;5051256;28;20048;-62
2021/10/15 02:04:46;;;;;;;2.63;2.10;;;;;;;24.95;21.97;94475.00;5070362;28;20055;-65
2021/10/15 02:07:13;;;;;;;2.78;1.58;;;;;;;25.08;21.74;94470.91;5070835;28;20044;-61
2021/10/15 02:09:40;;;;;;;2.58;1.90;;;;;;;25.07;21.66;94472.06;5071207;28;20059;-64
2021/10/15 02:12:07;;;;;;;2.20;1.70;;;;;;;25.25;21.72;94466.03;5072388;28;20047;-55
2021/10/15 02:14:34;;;;;;;2.42;1.70;;;;;;;25.28;21.62;94465.28;5042164;28;20053;-62
2021/10/15 02:17:01;;;;;;;2.25;1.63;;;;;;;25.21;21.75;94468.66;5042478;28;20079;-62
2021/10/15 02:19:28;;;;;;;2.10;1.80;;;;;;;25.12;21.71;94468.25;5054330;28;20045;-66
2021/10/15 02:21:56;;;;;;;1.80;1.60;;;;;;;25.21;21.60;94455.28;5055228;28;20052;-58
2021/10/15 02:24:23;;;;;;;1.88;1.65;;;;;;;25.06;21.86;94465.19;5054790;28;20044;-64
2021/10/15 02:26:50;;;;;;;2.00;1.63;;;;;;;25.00;21.73;94460.56;5054366;28;20072;-65
2021/10/15 02:29:17;;;;;;;2.10;1.80;;;;;;;25.20;21.83;94459.09;5054729;28;20044;-60
2021/10/15 02:31:45;;;;;;;3.80;1.80;;;;;;;25.19;22.03;94462.91;5054741;28;20076;-65
2021/10/15 02:34:12;;;;;;;2.13;1.90;;;;;;;25.01;21.87;94454.84;5054414;28;20052;-60
2021/10/15 02:36:39;;;;;;;2.58;1.98;;;;;;;25.25;21.72;94458.00;5053555;28;20059;-62
2021/10/15 02:39:06;;;;;;;2.45;2.10;;;;;;;25.32;21.60;94452.66;5053767;28;20049;-65
2021/10/15 02:41:37;;;;;;;1.98;1.70;;;;;;;25.21;21.96;94445.34;5054637;28;20474;-62
2021/10/15 02:44:06;;;;;;;2.63;1.93;;;;;;;25.21;21.77;94445.34;5041888;28;20061;-66
2021/10/15 02:46:34;;;;;;;2.25;1.60;;;;;;;24.96;21.96;94452.47;5049166;28;20648;-64
2021/10/15 02:49:01;;;;;;;2.30;1.90;;;;;;;25.08;21.92;94456.78;5054445;28;20041;-61
2021/10/15 02:51:29;;;;;;;2.47;1.52;;;;;;;25.16;21.78;94459.09;5054280;28;20052;-66
2021/10/15 02:53:56;;;;;;;2.28;1.60;;;;;;;25.21;21.74;94453.38;5053436;28;20047;-59
2021/10/15 02:56:23;;;;;;;2.00;1.50;;;;;;;25.24;21.58;94443.06;5053805;28;20497;-64
2021/10/15 02:58:50;;;;;;;2.13;1.70;;;;;;;25.29;21.27;94438.13;5054018;28;20053;-63
2021/10/15 03:01:17;;;;;;;1.98;1.50;;;;;;;25.02;21.85;94432.31;5054346;28;20078;-64
2021/10/15 03:03:44;;;;;;;2.53;1.80;;;;;;;25.33;21.69;94438.16;5053874;28;20037;-64
2021/10/15 03:06:12;;;;;;;2.10;1.75;;;;;;;25.19;21.71;94436.94;5053832;28;20453;-59
2021/10/15 03:08:40;;;;;;;1.70;1.60;;;;;;;25.08;21.60;94438.06;5053121;28;20060;-59
2021/10/15 03:11:07;;;;;;;1.90;1.60;;;;;;;25.16;21.76;94431.59;5053340;28;20371;-68
2021/10/15 03:13:34;;;;;;;2.25;1.70;;;;;;;25.03;21.61;94433.84;5045654;28;20061;-65
2021/10/15 03:16:01;;;;;;;2.10;1.80;;;;;;;25.20;21.53;94433.13;5043767;28;20056;-64
2021/10/15 03:18:28;;;;;;;1.63;1.25;;;;;;;24.97;22.18;94424.59;5053719;28;20446;-62
2021/10/15 03:20:55;;;;;;;1.80;1.38;;;;;;;25.17;21.78;94423.19;5053726;28;20068;-65
2021/10/15 03:23:22;;;;;;;1.38;1.23;;;;;;;25.18;21.76;94418.59;5052746;28;20056;-66
2021/10/15 03:25:49;;;;;;;2.03;1.73;;;;;;;25.40;21.55;94411.41;5053389;28;20483;-62
2021/10/15 03:28:17;;;;;;;1.60;1.23;;;;;;;25.30;21.53;94415.59;5052993;28;20557;-62
2021/10/15 03:30:44;;;;;;;1.73;1.40;;;;;;;25.41;21.44;94410.25;5053529;28;20053;-61
2021/10/15 03:33:11;;;;;;;1.63;1.30;;;;;;;25.20;21.55;94417.06;5035380;28;20045;-60
2021/10/15 03:35:38;;;;;;;1.70;1.30;;;;;;;24.94;21.83;94420.00;5053382;28;20048;-62
2021/10/15 03:38:05;;;;;;;1.60;1.13;;;;;;;25.29;21.68;94419.41;5053224;28;20049;-64
2021/10/15 03:40:32;;;;;;;1.80;1.30;;;;;;;25.25;22.01;94412.53;5053252;28;20057;-63
2021/10/15 03:43:00;;;;;;;1.77;1.38;;;;;;;25.47;21.43;94408.72;5050000;28;20120;-63
2021/10/15 03:45:27;;;;;;;1.48;1.23;;;;;;;25.29;21.92;94408.72;5037261;28;20060;-60
2021/10/15 03:47:54;;;;;;;1.40;1.23;;;;;;;25.06;21.93;94406.34;5052984;28;20048;-64
2021/10/15 03:50:21;;;;;;;1.80;1.40;;;;;;;25.00;22.09;94405.19;5053187;28;20734;-62
2021/10/15 03:52:48;;;;;;;1.98;1.55;;;;;;;24.97;22.27;94407.78;5052901;28;20051;-58
2021/10/15 03:55:15;;;;;;;1.58;1.40;;;;;;;25.15;21.93;94397.94;5052798;28;20056;-67
2021/10/15 03:57:42;;;;;;;5.00;1.55;;;;;;;24.97;22.22;94392.50;5052312;28;20518;-63
2021/10/15 04:00:11;;;;;;;1.90;1.60;;;;;;;25.26;21.93;94389.97;5053731;28;20055;-63
2021/10/15 04:02:42;;;;;;;;;;;;;;;25.25;21.84;94396.47;5054294;28;20049;-63
2021/10/15 04:05:10;;;;;;;2.53;1.80;;;;;;;25.10;21.94;94396.41;5053707;28;19927;-55
2021/10/15 04:07:38;;;;;;;2.55;1.92;;;;;;;25.11;22.30;94392.59;5053373;28;20044;-58
2021/10/15 04:10:07;;;;;;;2.80;2.03;;;;;;;25.16;22.12;94396.81;5053795;28;20047;-59
2021/10/15 04:12:34;;;;;;;2.40;1.90;;;;;;;25.21;22.22;94407.91;5053230;28;20055;-67
2021/10/15 04:15:02;;;;;;;2.40;1.80;;;;;;;25.19;22.30;94398.72;5033148;28;20479;-66
2021/10/15 04:17:29;;;;;;;2.78;2.33;;;;;;;25.28;22.28;94390.34;5040758;28;20063;-66
2021/10/15 04:19:56;;;;;;;4.95;2.30;;;;;;;25.21;22.43;94394.53;5052581;28;20056;-60
2021/10/15 04:22:25;;;;;;;2.25;1.92;;;;;;;25.07;22.48;94397.16;5053570;28;20316;-63
2021/10/15 04:24:52;;;;;;;3.42;2.10;;;;;;;25.40;22.20;94398.03;5053155;28;20060;-57
2021/10/15 04:27:20;;;;;;;3.15;2.20;;;;;;;25.25;22.57;94396.47;5052763;28;20462;-60
2021/10/15 04:29:47;;;;;;;2.90;2.50;;;;;;;25.19;22.53;94396.81;5053240;28;20048;-59
2021/10/15 04:32:14;;;;;;;5.63;3.97;;;;;;;28.19;20.64;94402.97;5052888;28;20079;-58
2021/10/15 04:34:41;;;;;;;6.38;4.95;;;;;;;29.30;19.67;94394.50;5034267;28;20040;-55
2021/10/15 04:37:08;;;;;;;6.95;6.13;;;;;;;30.01;19.22;94393.50;5056495;28;20059;-54
2021/10/15 04:39:35;;;;;;;11.07;9.95;;;;;;;30.56;19.01;94402.97;5060495;28;20060;-45
2021/10/15 04:42:03;;;;;;;18.10;14.73;;;;;;;31.20;18.50;94399.09;5052913;28;20049;-50
2021/10/15 04:44:30;;;;;;;17.48;14.73;;;;;;;31.06;18.39;94399.34;5037153;28;20457;-50
2021/10/15 04:46:57;;;;;;;19.20;17.20;;;;;;;31.15;17.97;94396.09;5047598;28;20045;-49
2021/10/15 04:49:24;;;;;;;22.88;16.10;;;;;;;31.21;18.14;94406.00;5053003;28;20053;-54
2021/10/15 04:51:51;;;;;;;16.42;14.68;;;;;;;30.38;19.07;94405.97;5051901;28;20451;-44
2021/10/15 04:54:18;;;;;;;12.32;11.02;;;;;;;29.69;19.09;94410.16;5053282;28;20051;-52
2021/10/15 04:56:45;;;;;;;13.45;11.15;;;;;;;29.20;19.35;94400.78;5051644;28;20048;-54
2021/10/15 04:59:12;;;;;;;13.68;12.35;;;;;;;28.75;19.84;94406.28;5059378;28;20056;-52
2021/10/15 05:01:40;;;;;;;15.55;14.05;;;;;;;29.53;19.68;94401.16;5052584;28;20321;-52
2021/10/15 05:04:07;;;;;;;11.30;10.05;;;;;;;28.85;19.93;94397.34;5052305;28;20044;-53
2021/10/15 05:06:34;;;;;;;10.63;9.50;;;;;;;28.55;20.01;94406.09;5050975;28;20081;-52
2021/10/15 05:11:36;;;;;;;12.45;10.02;;;;;;;28.93;20.12;94413.44;5052623;28;20048;-51
2021/10/15 05:14:03;;;;;;;10.95;9.85;;;;;;;29.12;20.05;94431.63;5034453;28;20067;-51
2021/10/15 05:16:30;;;;;;;12.30;9.93;;;;;;;29.68;19.56;94434.81;5055889;28;20063;-53
2021/10/15 05:18:58;;;;;;;9.23;8.15;;;;;;;29.66;19.58;94416.31;5052438;28;20056;-53
2021/10/15 05:21:25;;;;;;;8.48;7.63;;;;;;;29.89;19.13;94418.31;5052375;28;20048;-53
2021/10/15 05:23:52;;;;;;;8.07;6.90;;;;;;;30.11;18.86;94407.22;5052253;28;20049;-57
2021/10/15 05:26:19;;;;;;;6.40;5.75;;;;;;;29.83;19.11;94406.47;5051843;28;20048;-52
2021/10/15 05:28:46;;;;;;;5.45;4.60;;;;;;;29.84;18.78;94416.06;5052180;28;20052;-51
2021/10/15 05:31:13;;;;;;;6.13;4.70;;;;;;;29.97;18.54;94403.56;5052510;28;20060;-52
2021/10/15 05:33:40;;;;;;;4.43;3.53;;;;;;;29.99;18.57;94398.53;5051559;28;20355;-52
2021/10/15 05:36:07;;;;;;;3.63;3.22;;;;;;;29.25;18.79;94383.41;5051912;28;20040;-51
2021/10/15 05:38:34;;;;;;;3.45;2.70;;;;;;;29.04;19.09;94400.59;5051407;28;20064;-50
2021/10/15 05:41:01;;;;;;;2.78;2.30;;;;;;;28.79;19.29;94396.25;5052305;28;20386;-51
2021/10/15 05:43:28;;;;;;;2.40;2.17;;;;;;;28.25;19.25;94389.88;5044513;28;20061;-52
2021/10/15 05:45:55;;;;;;;2.22;1.90;;;;;;;28.30;19.18;94391.38;5043280;28;20049;-52
2021/10/15 05:48:24;;;;;;;2.42;1.88;;;;;;;28.13;19.73;94399.19;5056419;28;20049;-51
2021/10/15 05:50:51;;;;;;;2.22;2.03;;;;;;;27.95;19.80;94387.81;5055923;28;20044;-52
2021/10/15 05:53:20;;;;;;;2.78;2.13;;;;;;;27.99;19.78;94391.22;5056195;28;20048;-51
2021/10/15 06:01:09;;;;;;;3.88;2.00;;;;;;;27.89;19.78;94390.16;5056052;28;20044;-52
2021/10/15 06:03:37;;;;;;;4.85;3.60;;;;;;;27.95;19.78;94395.88;5055707;28;20056;-53
2021/10/15 06:16:45;;;;;;;2.78;2.38;;;;;;;27.79;19.95;94376.81;5049553;28;20447;-51
2021/10/15 06:19:15;;;;;;;4.35;2.60;;;;;;;27.81;20.10;94366.41;5055640;28;20051;-52
2021/10/15 06:21:43;;;;;;;3.40;2.35;;;;;;;27.84;19.65;94371.00;5054862;28;20055;-53
2021/10/15 06:24:10;;;;;;;2.75;2.35;;;;;;;27.87;19.66;94372.91;5055401;28;20055;-53
2021/10/15 06:26:37;;;;;;;3.70;2.58;;;;;;;27.94;19.81;94372.84;5054501;28;20045;-52
2021/10/15 06:29:04;;;;;;;4.60;3.30;;;;;;;27.85;19.62;94378.69;5055707;28;20076;-52
2021/10/15 06:31:31;;;;;;;5.40;4.10;;;;;;;27.78;20.15;94380.66;5055382;28;20052;-52
2021/10/15 06:33:59;;;;;;;4.05;3.58;;;;;;;27.64;20.08;94376.91;5055279;28;20329;-54
2021/10/15 06:36:26;;;;;;;4.55;3.58;;;;;;;27.70;20.32;94390.69;5054465;28;20112;-54
2021/10/15 06:38:53;;;;;;;4.90;4.32;;;;;;;27.74;19.98;94383.34;5055071;28;20475;-52
2021/10/15 06:41:20;;;;;;;4.97;4.00;;;;;;;27.73;20.13;94378.38;5055274;28;20063;-52
2021/10/15 06:43:47;;;;;;;4.30;3.80;;;;;;;27.81;20.00;94374.47;5044687;28;20056;-51
2021/10/15 06:46:14;;;;;;;4.88;4.15;;;;;;;27.73;20.10;94373.00;5045013;28;20059;-51
2021/10/15 06:48:41;;;;;;;4.78;3.60;;;;;;;27.86;19.91;94384.81;5072643;28;20055;-53
2021/10/15 06:51:09;;;;;;;4.22;3.83;;;;;;;27.71;20.51;94386.84;5074425;28;20044;-52
2021/10/15 06:53:36;;;;;;;4.20;3.65;;;;;;;27.78;19.98;94383.31;5074820;28;20052;-51
2021/10/15 06:56:03;;;;;;;4.03;3.15;;;;;;;27.96;20.11;94386.66;5074552;28;20041;-53
2021/10/15 06:58:32;;;;;;;4.45;3.75;;;;;;;27.68;20.23;94384.19;5056410;28;20051;-52
2021/10/15 07:00:59;;;;;;;3.72;3.22;;;;;;;27.79;20.44;94382.16;5054855;28;20056;-51
2021/10/15 07:03:26;;;;;;;3.33;3.00;;;;;;;27.98;20.08;94372.81;5054510;28;20051;-51
2021/10/15 07:05:53;;;;;;;4.43;3.50;;;;;;;27.89;20.11;94378.66;5054454;28;20045;-52
2021/10/15 07:08:20;;;;;;;4.15;3.58;;;;;;;27.90;20.32;94370.19;5054508;28;20052;-50
2021/10/15 07:10:47;;;;;;;4.78;3.38;;;;;;;28.00;20.06;94352.44;5054547;28;20041;-50
2021/10/15 07:13:14;;;;;;;4.85;3.25;;;;;;;27.91;20.03;94354.84;5048782;28;20061;-50
2021/10/15 07:15:43;;;;;;;3.92;3.25;;;;;;;27.83;20.36;94361.41;5039685;28;20047;-52
2021/10/15 07:18:10;;;;;;;4.47;3.20;;;;;;;27.86;20.30;94363.34;5067396;28;20546;-50
2021/10/15 07:20:37;;;;;;;4.20;3.45;;;;;;;27.77;20.23;94352.25;5074347;28;20052;-52
2021/10/15 07:23:05;;;;;;;4.13;3.47;;;;;;;27.99;19.93;94361.69;5074317;28;20055;-51
2021/10/15 07:25:32;;;;;;;4.68;3.63;;;;;;;28.06;20.17;94376.97;5073921;28;20044;-51
2021/10/15 07:27:59;;;;;;;5.85;4.22;;;;;;;28.18;19.65;94373.81;5074284;28;20055;-51
2021/10/15 07:30:26;;;;;;;6.13;4.28;;;;;;;27.90;20.28;94380.19;5055302;28;20052;-51
2021/10/15 07:32:54;;;;;;;4.05;3.35;;;;;;;28.02;20.01;94379.69;5054318;28;20048;-50
2021/10/15 07:35:21;;;;;;;6.03;3.80;;;;;;;27.70;20.63;94374.56;5053974;28;20041;-51
2021/10/15 07:37:48;;;;;;;9.20;3.72;;;;;;;27.76;20.64;94366.84;5053774;28;20052;-50
2021/10/15 07:40:15;;;;;;;4.35;3.55;;;;;;;27.71;20.26;94369.97;5054068;28;20447;-51
2021/10/15 07:42:42;;;;;;;4.65;3.90;;;;;;;27.89;20.42;94370.59;5052895;28;20457;-51
2021/10/15 07:45:10;;;;;;;4.20;3.53;;;;;;;28.07;20.37;94371.19;5033418;28;20352;-52
2021/10/15 07:47:37;;;;;;;6.57;4.20;;;;;;;27.92;20.25;94369.81;5052953;28;20048;-51
2021/10/15 07:50:04;;;;;;;5.13;4.20;;;;;;;27.95;20.33;94369.00;5053539;28;20057;-49
2021/10/15 07:52:32;;;;;;;4.45;3.97;;;;;;;27.89;20.41;94359.84;5052322;28;20478;-52
2021/10/15 07:54:59;;;;;;;5.03;4.00;;;;;;;27.87;20.56;94352.19;5053287;28;20052;-51
2021/10/15 07:57:26;;;;;;;4.05;3.50;;;;;;;27.81;20.67;94343.00;5052729;28;20052;-49
2021/10/15 07:59:53;;;;;;;4.22;3.78;;;;;;;27.99;20.23;94348.25;5053398;28;20451;-51
2021/10/15 08:02:20;;;;;;;4.82;4.30;;;;;;;28.02;20.21;94358.19;5053288;28;20048;-51
2021/10/15 08:04:47;;;;;;;4.53;3.80;;;;;;;27.91;20.44;94349.47;5053588;28;20052;-50
2021/10/15 08:07:14;;;;;;;4.20;3.58;;;;;;;28.02;19.87;94371.63;5052754;28;20468;-53
2021/10/15 08:09:41;;;;;;;5.68;4.28;;;;;;;27.97;20.44;94380.13;5052222;28;20049;-51
2021/10/15 08:12:08;;;;;;;6.57;4.60;;;;;;;28.00;19.98;94397.38;5053435;28;20363;-53
2021/10/15 08:14:35;;;;;;;5.28;4.57;;;;;;;28.03;19.76;94397.34;5037082;28;20048;-58
2021/10/15 08:17:02;;;;;;;5.70;4.60;;;;;;;28.19;19.85;94391.44;5047219;28;20045;-52
2021/10/15 08:19:29;;;;;;;8.00;5.22;;;;;;;28.05;19.76;94389.63;5053521;28;20053;-52
2021/10/15 08:21:56;;;;;;;5.43;4.75;;;;;;;28.12;20.03;94375.41;5052719;28;20052;-51
2021/10/15 08:24:24;;;;;;;5.80;5.20;;;;;;;27.86;20.52;94376.75;5053295;28;20044;-51
2021/10/15 08:26:51;;;;;;;6.53;5.82;;;;;;;27.88;20.54;94364.47;5052818;28;20345;-52
2021/10/15 08:29:19;;;;;;;7.35;6.13;;;;;;;28.15;20.07;94364.63;5053197;28;20045;-51
2021/10/15 08:31:46;;;;;;;7.10;6.40;;;;;;;27.90;20.48;94361.38;5052996;28;20052;-52
2021/10/15 08:34:13;;;;;;;8.30;6.78;;;;;;;27.93;20.19;94365.97;5052663;28;20515;-53
2021/10/15 08:36:41;;;;;;;8.20;6.78;;;;;;;27.94;20.39;94368.25;5052637;28;20063;-52
2021/10/15 08:39:09;;;;;;;8.65;7.75;;;;;;;27.89;20.41;94362.53;5052686;28;20049;-53
2021/10/15 08:41:36;;;;;;;8.02;7.18;;;;;;;27.75;20.37;94368.00;5053038;28;20051;-52
2021/10/15 08:44:03;;;;;;;8.10;7.28;;;;;;;27.99;20.38;94369.72;5040933;28;20068;-53
2021/10/15 08:46:33;;;;;;;8.07;6.95;;;;;;;27.85;20.34;94364.50;5040682;28;20068;-51
2021/10/15 08:49:00;;;;;;;7.00;6.00;;;;;;;28.03;20.11;94358.94;5052712;28;20049;-51
2021/10/15 08:51:27;;;;;;;6.30;5.70;;;;;;;27.99;20.21;94359.00;5052706;28;20048;-52
2021/10/15 08:53:58;;;;;;;5.88;5.28;;;;;;;28.10;19.99;94365.03;5035095;28;20430;-50
2021/10/15 08:56:34;;;;;;;5.82;5.22;;;;;;;28.03;20.28;94367.78;5052628;28;20057;-55
2021/10/15 08:59:05;;;;;;;6.00;4.82;;;;;;;28.13;19.93;94353.50;5052301;28;20439;-52
2021/10/15 09:01:48;;;;;;;6.22;4.95;;;;;;;28.04;19.88;94355.88;5052547;28;20045;-50
2021/10/15 09:04:18;;;;;;;5.70;5.20;;;;;;;28.12;20.05;94365.41;5052134;28;20053;-51
2021/10/15 09:06:49;;;;;;;8.23;5.32;;;;;;;28.00;19.77;94363.19;5052385;28;20443;-52
2021/10/15 09:09:28;;;;;;;5.88;4.97;;;;;;;28.04;20.20;94373.91;5071139;28;20052;-51
2021/10/15 09:12:14;;;;;;;5.90;4.93;;;;;;;27.92;20.13;94367.13;5072811;28;20052;-51
2021/10/15 09:14:41;;;;;;;5.70;5.03;;;;;;;27.93;20.14;94366.72;5037771;28;20064;-50
2021/10/15 09:17:25;;;;;;;6.32;5.40;;;;;;;28.11;20.00;94355.06;5045352;28;20041;-50
2021/10/15 09:19:56;;;;;;;6.22;5.18;;;;;;;27.99;19.88;94358.22;5052477;28;20044;-51
2021/10/15 09:22:32;;;;;;;6.07;5.03;;;;;;;27.98;20.17;94360.16;5052235;28;20736;-52
2021/10/15 09:25:07;;;;;;;5.35;4.70;;;;;;;28.04;20.13;94355.88;5052289;28;20356;-50
2021/10/15 09:28:01;;;;;;;6.20;5.50;;;;;;;28.03;20.32;94364.31;5051889;28;20444;-53
2021/10/15 09:30:29;;;;;;;5.88;5.00;;;;;;;27.82;20.42;94357.19;5049413;28;20080;-51
2021/10/15 09:32:58;;;;;;;6.07;5.15;;;;;;;28.10;19.97;94365.03;5052054;28;20051;-52
2021/10/15 09:35:28;;;;;;;10.45;9.45;;;;;;;28.12;20.14;94370.78;5052527;28;20052;-51
2021/10/15 09:38:02;;;;;;;13.43;12.07;;;;;;;28.11;20.29;94369.25;5051993;28;20056;-53
2021/10/15 09:40:43;;;;;;;7.53;6.45;;;;;;;28.16;19.81;94374.19;5052551;28;20049;-52
2021/10/15 09:43:12;;;;;;;5.97;5.20;;;;;;;28.23;19.71;94379.50;5047377;28;20057;-53
2021/10/15 09:45:42;;;;;;;6.88;4.70;;;;;;;27.79;20.23;94376.81;5032137;28;20052;-52
2021/10/15 09:48:27;;;;;;;4.88;4.40;;;;;;;28.06;20.41;94375.03;5040309;28;20049;-51
2021/10/15 09:51:12;;;;;;;5.38;4.65;;;;;;;28.11;19.90;94381.94;5052169;28;20056;-52
2021/10/15 09:53:40;;;;;;;4.63;4.03;;;;;;;28.00;20.42;94375.88;5051980;28;20044;-50
2021/10/15 09:56:08;;;;;;;4.22;3.80;;;;;;;27.95;20.51;94374.38;5051872;28;20048;-50
2021/10/15 09:58:35;;;;;;;5.55;4.20;;;;;;;28.18;20.03;94366.50;5034289;28;20049;-50
2021/10/15 10:01:02;;;;;;;5.53;4.13;;;;;;;28.08;19.96;94367.34;5052034;28;20048;-54
2021/10/15 10:03:29;;;;;;;5.70;4.53;;;;;;;28.67;20.09;94380.63;5052035;28;20049;-51
2021/10/15 10:05:56;;;;;;;6.95;4.80;;;;;;;28.10;20.55;94369.63;5051682;28;20057;-53
2021/10/15 10:08:23;;;;;;;6.20;5.53;;;;;;;28.34;20.24;94373.28;5034020;28;20041;-52
2021/10/15 10:10:50;;;;;;;7.63;6.00;;;;;;;28.56;20.47;94367.28;5051557;28;20045;-52
2021/10/15 10:13:17;;;;;;;9.55;7.93;;;;;;;28.45;20.64;94360.50;5046056;28;20061;-53
2021/10/15 10:15:46;;;;;;;9.13;7.78;;;;;;;28.41;20.51;94367.84;5032120;28;20052;-51
2021/10/15 10:18:19;;;;;;;10.63;9.23;;;;;;;28.72;20.31;94366.75;5060808;28;20048;-51
2021/10/15 10:21:07;;;;;;;10.90;9.43;;;;;;;28.69;20.52;94364.84;5051895;28;20053;-51
2021/10/15 10:23:51;;;;;;;9.38;8.13;;;;;;;28.82;20.30;94355.09;5051999;28;20053;-52
2021/10/15 10:26:24;;;;;;;10.80;9.23;;;;;;;28.65;20.30;94358.75;5033964;28;20056;-50
2021/10/15 10:29:05;;;;;;;10.65;8.38;;;;;;;28.64;20.45;94348.41;5051631;28;20573;-52
2021/10/15 10:31:33;;;;;;;9.13;7.95;;;;;;;28.89;20.00;94338.16;5050972;28;20459;-51
2021/10/15 10:34:06;;;;;;;9.68;8.68;;;;;;;28.56;20.41;94339.63;5054540;28;20383;-50
2021/10/15 10:36:36;;;;;;;8.50;7.57;;;;;;;28.62;20.33;94348.78;5055197;28;20040;-51
2021/10/15 10:39:21;;;;;;;8.55;7.07;;;;;;;28.14;20.89;94338.91;5066101;28;20049;-50
2021/10/15 10:42:08;;;;;;;7.38;6.57;;;;;;;28.63;20.48;94344.19;5055111;28;20045;-52
2021/10/15 10:44:50;;;;;;;6.72;6.10;;;;;;;28.75;20.19;94339.03;5038475;28;20053;-52
2021/10/15 10:47:22;;;;;;;6.70;6.00;;;;;;;28.78;20.23;94348.22;5046420;28;20048;-54
2021/10/15 10:50:05;;;;;;;6.90;6.13;;;;;;;29.04;19.92;94344.09;5054313;28;20059;-52
2021/10/15 10:52:58;;;;;;;6.00;5.40;;;;;;;28.78;20.38;94340.91;5054832;28;20375;-51
2021/10/15 10:55:43;;;;;;;6.30;5.57;;;;;;;28.40;20.42;94334.06;5053648;28;20053;-51
2021/10/15 10:58:37;;;;;;;5.55;4.90;;;;;;;28.49;20.42;94337.03;5054508;28;20044;-51
2021/10/15 11:01:28;;;;;;;5.07;4.57;;;;;;;28.68;20.57;94339.13;5053870;28;20447;-50
2021/10/15 11:03:56;;;;;;;6.43;5.25;;;;;;;29.09;20.27;94340.94;5054763;28;20053;-51
2021/10/15 11:06:24;;;;;;;6.20;5.25;;;;;;;28.77;20.49;94331.31;5054514;28;20052;-52
2021/10/15 11:08:51;;;;;;;5.68;5.10;;;;;;;28.89;20.30;94322.00;5054928;28;20045;-51
2021/10/15 11:11:38;;;;;;;5.93;5.25;;;;;;;28.95;20.26;94320.38;5054535;28;20048;-51
2021/10/15 11:14:05;;;;;;;6.10;4.65;;;;;;;28.69;20.62;94318.38;5042198;28;20068;-55
2021/10/15 11:16:33;;;;;;;6.28;5.68;;;;;;;28.73;20.50;94316.41;5037673;28;20060;-52
2021/10/15 11:19:00;;;;;;;5.70;5.07;;;;;;;28.69;20.22;94308.38;5054683;28;20041;-52
2021/10/15 11:21:27;;;;;;;6.30;5.68;;;;;;;28.88;20.39;94303.53;5054374;28;20052;-51
2021/10/15 11:23:54;;;;;;;7.88;7.07;;;;;;;28.84;20.49;94290.88;5054867;28;20119;-51
2021/10/15 11:26:34;;;;;;;11.40;8.82;;;;;;;28.66;20.49;94292.28;5036623;28;20052;-52
2021/10/15 11:29:01;;;;;;;12.98;8.02;;;;;;;28.76;20.44;94281.38;5054695;28;20059;-53
2021/10/15 11:31:28;;;;;;;8.55;7.22;;;;;;;28.89;20.32;94286.25;5053587;28;20454;-54
2021/10/15 11:34:08;;;;;;;8.05;6.65;;;;;;;29.08;20.22;94291.75;5036877;28;20048;-51
2021/10/15 11:36:35;;;;;;;6.88;5.90;;;;;;;28.80;20.62;94279.41;5053679;28;20041;-51
2021/10/15 11:39:03;;;;;;;6.45;5.38;;;;;;;28.74;20.74;94283.72;5054132;28;20059;-51
2021/10/15 11:41:30;;;;;;;5.93;5.32;;;;;;;28.96;20.33;94280.78;5063925;28;20052;-52
2021/10/15 11:43:57;;;;;;;6.65;5.40;;;;;;;28.96;20.44;94264.63;5052108;28;20099;-52
2021/10/15 11:46:29;;;;;;;6.78;6.03;;;;;;;28.92;20.25;94255.84;5048634;28;20045;-53
2021/10/15 11:48:56;;;;;;;6.45;5.70;;;;;;;28.67;20.62;94248.84;5053739;28;20436;-51
2021/10/15 11:51:28;;;;;;;6.57;5.20;;;;;;;28.88;20.55;94245.13;5053827;28;20045;-53
2021/10/15 11:54:02;;;;;;;7.20;6.07;;;;;;;28.93;20.47;94233.16;5053383;28;20120;-50
2021/10/15 11:56:37;;;;;;;7.20;6.32;;;;;;;29.08;20.15;94232.53;5053609;28;20045;-53
2021/10/15 11:59:08;;;;;;;7.32;6.60;;;;;;;28.83;20.57;94213.28;5053723;28;20051;-52
2021/10/15 12:01:36;;;;;;;7.43;6.65;;;;;;;28.97;20.18;94220.41;5053446;28;20044;-51